CSCL Dalian — VRBH4 — position and weather

sailwx.info

Track history (hours):
 
Tides and Currents Weather Stations Pressure Air Temp Water Temp Dewpoint Dewpoint Depression Visibility Wind Speed Wind Dir Waves Ship Positions

CSCL Dalian

Last reported at 2018-Apr-23 23:00 UTC. Time now 2018-Apr-23 23:25 UTC.
Position N 31°09' E 122°14'.

Length 259.8 m; ; draft 11 m.

Type: Ship (hazmat cat D). MMSI: 477014600.

Date/timePositionNaut miles runAvg speedWind from/ knotsBaromVisibWave heightAir tempDewpointWater temp
2018-Apr-23 23:00N 31°09' E 122°14'4 8.0
2018-Apr-23 22:29N 31°06' E 122°18'4 6.6
2018-Apr-23 21:58N 31°06' E 122°22'10 7.8
2018-Apr-23 20:43N 31°06' E 122°34'  
2018-Apr-20 19:20N 25°31' E 121°48'411.0
2018-Apr-20 18:55N 25°26' E 121°48'512.2
2018-Apr-20 18:30N 25°21' E 121°47'612.4
2018-Apr-20 18:00N 25°15' E 121°46'511.0
2018-Apr-20 17:30N 25°10' E 121°45'1 1.2
2018-Apr-20 16:57N 25°09' E 121°45'0 0.0
2018-Apr-20 16:30N 25°09' E 121°45'0 0.1
2018-Apr-20 16:00N 25°09' E 121°45'0 0.1
2018-Apr-20 15:30N 25°09' E 121°45'0 0.0
2018-Apr-20 15:00N 25°09' E 121°45'0 0.0
2018-Apr-20 14:30N 25°09' E 121°45'0 0.0
2018-Apr-20 14:00N 25°09' E 121°45'0 0.0
2018-Apr-20 13:30N 25°09' E 121°45'0 0.0
2018-Apr-20 13:00N 25°09' E 121°45'0 0.0
2018-Apr-20 12:30N 25°09' E 121°45'0 0.0
2018-Apr-20 12:00N 25°09' E 121°45'0 0.0
2018-Apr-20 11:30N 25°09' E 121°45'0 0.0
2018-Apr-20 11:00N 25°09' E 121°45'0 0.0
2018-Apr-20 10:30N 25°09' E 121°45'0 0.1
2018-Apr-20 10:00N 25°09' E 121°45'0 0.1
2018-Apr-20 09:30N 25°09' E 121°45'3 6.6
2018-Apr-20 09:00N 25°12' E 121°45'4 8.4
2018-Apr-20 08:30N 25°16' E 121°44'816.3
2018-Apr-20 08:00N 25°24' E 121°42'22216.8
2018-Apr-19 18:48N 23°31' E 118°12'4017.9
2018-Apr-19 16:33N 23°10' E 117°35'118.6
2018-Apr-19 16:30N 23°10' E 117°34'3218.4
2018-Apr-19 14:46N 22°54' E 117°03'518.2
2018-Apr-19 14:29N 22°52' E 116°59'816.5
2018-Apr-19 14:00N 22°49' E 116°51'1317.8
2018-Apr-19 13:15N 22°42' E 116°38'  
Track history (hours):
 
Tides and Currents Weather Stations Pressure Air Temp Water Temp Dewpoint Dewpoint Depression Visibility Wind Speed Wind Dir Waves Ship Positions

CSCL Dalian

Last reported at 2018-Apr-23 23:00 UTC. Time now 2018-Apr-23 23:25 UTC.
Position N 31°09' E 122°14'.

Length 259.8 m; ; draft 11 m.

Type: Ship (hazmat cat D). MMSI: 477014600.

Date/timePositionNaut miles runAvg speedWind from/ knotsBaromVisibWave heightAir tempDewpointWater temp
2018-Apr-23 23:00N 31°09' E 122°14'4 8.0
2018-Apr-23 22:29N 31°06' E 122°18'4 6.6
2018-Apr-23 21:58N 31°06' E 122°22'10 7.8
2018-Apr-23 20:43N 31°06' E 122°34'  
2018-Apr-20 19:20N 25°31' E 121°48'411.0
2018-Apr-20 18:55N 25°26' E 121°48'512.2
2018-Apr-20 18:30N 25°21' E 121°47'612.4
2018-Apr-20 18:00N 25°15' E 121°46'511.0
2018-Apr-20 17:30N 25°10' E 121°45'1 1.2
2018-Apr-20 16:57N 25°09' E 121°45'0 0.0
2018-Apr-20 16:30N 25°09' E 121°45'0 0.1
2018-Apr-20 16:00N 25°09' E 121°45'0 0.1
2018-Apr-20 15:30N 25°09' E 121°45'0 0.0
2018-Apr-20 15:00N 25°09' E 121°45'0 0.0
2018-Apr-20 14:30N 25°09' E 121°45'0 0.0
2018-Apr-20 14:00N 25°09' E 121°45'0 0.0
2018-Apr-20 13:30N 25°09' E 121°45'0 0.0
2018-Apr-20 13:00N 25°09' E 121°45'0 0.0
2018-Apr-20 12:30N 25°09' E 121°45'0 0.0
2018-Apr-20 12:00N 25°09' E 121°45'0 0.0
2018-Apr-20 11:30N 25°09' E 121°45'0 0.0
2018-Apr-20 11:00N 25°09' E 121°45'0 0.0
2018-Apr-20 10:30N 25°09' E 121°45'0 0.1
2018-Apr-20 10:00N 25°09' E 121°45'0 0.1
2018-Apr-20 09:30N 25°09' E 121°45'3 6.6
2018-Apr-20 09:00N 25°12' E 121°45'4 8.4
2018-Apr-20 08:30N 25°16' E 121°44'816.3
2018-Apr-20 08:00N 25°24' E 121°42'22216.8
2018-Apr-19 18:48N 23°31' E 118°12'4017.9
2018-Apr-19 16:33N 23°10' E 117°35'118.6
2018-Apr-19 16:30N 23°10' E 117°34'3218.4
2018-Apr-19 14:46N 22°54' E 117°03'518.2
2018-Apr-19 14:29N 22°52' E 116°59'816.5
2018-Apr-19 14:00N 22°49' E 116°51'1317.8
2018-Apr-19 13:15N 22°42' E 116°38'  

Dump ship's entire track history